Terminal Aerodrome Forecast
Issued by NWS

Home | Current Version | Previous Version | Text Only | Print | Product List | Glossary On
Versions: 1 2 3 4 5 6 7 8 9 10 11 12 13
000
FTUS44 KLZK 291700
TAFBPK
TAF
KBPK 291720Z 2918/3018 VRB06KT P6SM SCT060 SCT250
     FM301000 19005KT P6SM VCSH SCT050 BKN100 PROB30 3013/3018 -RA
      BKN030=

USA.gov is the U.S. government's official web portal to all federal, state and local government web resources and services.